createdAt,value
2023-09-09T00:01:35.849Z,51.29
2023-09-09T00:04:07.024Z,50.76
2023-09-09T00:06:37.289Z,50.64
2023-09-09T00:09:10.312Z,50.57
2023-09-09T00:11:40.803Z,50.68
2023-09-09T00:14:13.738Z,51.22
2023-09-09T00:16:43.990Z,50.60
2023-09-09T00:19:14.419Z,52.28
2023-09-09T00:21:46.468Z,51.09
2023-09-09T00:24:16.694Z,51.23
2023-09-09T00:26:46.928Z,50.99
2023-09-09T00:29:19.882Z,50.88
2023-09-09T00:31:51.426Z,51.36
2023-09-09T00:34:21.920Z,51.12
2023-09-09T00:36:55.006Z,50.92
2023-09-09T00:39:25.232Z,51.15
2023-09-09T00:41:55.556Z,51.08
2023-09-09T00:44:28.496Z,51.84
2023-09-09T00:46:59.273Z,52.20
2023-09-09T00:49:29.691Z,52.88
2023-09-09T00:52:00.377Z,53.49
2023-09-09T00:54:30.633Z,54.47
2023-09-09T00:57:02.044Z,55.12
2023-09-09T00:59:34.905Z,55.32
2023-09-09T01:02:05.650Z,53.00
2023-09-09T01:04:37.364Z,53.59
2023-09-09T01:07:08.599Z,52.78
2023-09-09T01:09:38.941Z,52.21
2023-09-09T01:12:13.407Z,54.33
2023-09-09T01:14:46.815Z,52.90
2023-09-09T01:17:17.326Z,52.06
2023-09-09T01:19:47.666Z,51.95
2023-09-09T01:22:23.042Z,52.59
2023-09-09T01:24:55.633Z,52.91
2023-09-09T01:27:25.880Z,53.95
2023-09-09T01:29:56.144Z,53.26
2023-09-09T01:32:26.455Z,52.55
2023-09-09T01:34:56.852Z,52.30
2023-09-09T01:37:29.805Z,53.35
2023-09-09T01:40:05.636Z,53.13
2023-09-09T01:42:35.932Z,54.26
2023-09-09T01:45:07.018Z,55.13
2023-09-09T01:47:37.532Z,55.64
2023-09-09T01:50:08.564Z,55.33
2023-09-09T01:52:41.476Z,56.10
2023-09-09T01:55:12.015Z,56.51
2023-09-09T01:57:45.728Z,57.24
2023-09-09T02:00:17.029Z,56.16
2023-09-09T02:02:47.576Z,56.39
2023-09-09T02:05:18.311Z,58.04
2023-09-09T02:07:51.264Z,55.48
2023-09-09T02:10:21.936Z,54.96
2023-09-09T02:12:53.745Z,54.52
2023-09-09T02:15:24.030Z,54.33
2023-09-09T02:17:55.077Z,55.81
2023-09-09T02:20:25.370Z,56.97
2023-09-09T02:22:59.599Z,56.67
2023-09-09T02:25:30.900Z,57.08
2023-09-09T02:28:01.161Z,57.75
2023-09-09T02:30:31.492Z,57.81
2023-09-09T02:33:01.891Z,57.73
2023-09-09T02:35:32.281Z,58.33
2023-09-09T02:38:05.295Z,58.27
2023-09-09T02:40:37.758Z,58.26
2023-09-09T02:43:12.340Z,58.87
2023-09-09T02:45:42.718Z,58.93
2023-09-09T02:48:13.120Z,59.13
2023-09-09T02:50:44.791Z,59.81
2023-09-09T02:53:17.749Z,60.24
2023-09-09T02:55:48.104Z,60.49
2023-09-09T02:58:18.556Z,60.66
2023-09-09T03:00:49.694Z,60.64
2023-09-09T03:03:21.946Z,61.67
2023-09-09T03:05:52.515Z,60.97
2023-09-09T03:08:25.483Z,61.43
2023-09-09T03:10:56.957Z,62.36
2023-09-09T03:13:28.889Z,62.39
2023-09-09T03:15:59.289Z,62.72
2023-09-09T03:18:30.052Z,63.03
2023-09-09T03:21:00.359Z,63.05
2023-09-09T03:23:33.188Z,63.61
2023-09-09T03:26:03.451Z,63.47
2023-09-09T03:28:33.671Z,63.04
2023-09-09T03:31:04.536Z,63.24
2023-09-09T03:33:35.046Z,63.35
2023-09-09T03:36:05.451Z,64.11
2023-09-09T03:38:38.368Z,64.13
2023-09-09T03:41:09.427Z,64.20
2023-09-09T03:43:42.287Z,64.37
2023-09-09T03:46:13.103Z,64.70
2023-09-09T03:48:43.492Z,64.88
2023-09-09T03:51:13.836Z,65.12
2023-09-09T03:53:46.950Z,65.57
2023-09-09T03:56:17.347Z,66.11
2023-09-09T03:58:47.695Z,66.06
2023-09-09T04:01:18.086Z,65.78
2023-09-09T04:03:48.817Z,65.66
2023-09-09T04:06:21.265Z,66.05
2023-09-09T04:08:57.644Z,66.30
2023-09-09T04:11:28.676Z,66.75
2023-09-09T04:14:00.954Z,66.78
2023-09-09T04:16:31.770Z,66.71
2023-09-09T04:19:02.066Z,66.74
2023-09-09T04:21:32.385Z,66.52
2023-09-09T04:24:05.313Z,66.50
2023-09-09T04:26:36.500Z,66.48
2023-09-09T04:29:06.933Z,66.80
2023-09-09T04:31:37.292Z,66.85
2023-09-09T04:34:08.293Z,67.33
2023-09-09T04:36:38.603Z,67.44
2023-09-09T04:39:14.945Z,67.11
2023-09-09T04:41:45.665Z,67.24
2023-09-09T04:44:17.113Z,67.75
2023-09-09T04:46:47.504Z,67.85
2023-09-09T04:49:18.757Z,67.87
2023-09-09T04:51:50.324Z,67.98
2023-09-09T04:54:23.168Z,68.09
2023-09-09T04:56:53.355Z,68.39
2023-09-09T04:59:23.574Z,68.39
2023-09-09T05:01:54.116Z,68.23
2023-09-09T05:04:24.450Z,68.26
2023-09-09T05:06:55.142Z,68.00
2023-09-09T05:09:28.447Z,68.16
2023-09-09T05:11:58.779Z,68.43
2023-09-09T05:14:29.135Z,68.58
2023-09-09T05:16:59.497Z,68.63
2023-09-09T05:19:29.819Z,69.00
2023-09-09T05:22:00.191Z,69.54
2023-09-09T05:24:35.195Z,69.00
2023-09-09T05:27:06.216Z,69.29
2023-09-09T05:29:37.022Z,68.56
2023-09-09T05:32:08.950Z,68.31
2023-09-09T05:34:39.499Z,68.21
2023-09-09T05:37:09.688Z,67.77
2023-09-09T05:39:42.521Z,67.74
2023-09-09T05:42:12.717Z,66.11
2023-09-09T05:44:42.964Z,66.03
2023-09-09T05:47:13.320Z,65.64
2023-09-09T05:49:43.938Z,65.88
2023-09-09T05:52:14.268Z,65.52
2023-09-09T05:54:48.776Z,64.95
2023-09-09T05:57:19.315Z,64.51
2023-09-09T05:59:50.171Z,64.79
2023-09-09T06:02:22.229Z,64.48
2023-09-09T06:04:53.183Z,63.31
2023-09-09T06:07:24.001Z,63.51
2023-09-09T06:12:27.029Z,61.46
2023-09-09T06:14:58.316Z,59.22
2023-09-09T06:17:29.779Z,58.97
2023-09-09T06:20:00.064Z,58.56
2023-09-09T06:22:30.413Z,57.23
2023-09-09T06:25:03.272Z,55.68
2023-09-09T06:27:33.599Z,55.62
2023-09-09T06:30:03.987Z,54.55
2023-09-09T06:32:34.415Z,54.03
2023-09-09T06:35:04.806Z,51.91
2023-09-09T06:37:35.205Z,51.42
2023-09-09T06:40:09.356Z,50.37
2023-09-09T06:42:39.663Z,50.30
2023-09-09T06:45:12.746Z,50.09
2023-09-09T06:47:43.104Z,50.34
2023-09-09T06:50:13.949Z,50.48
2023-09-09T06:52:46.047Z,50.88
2023-09-09T06:55:19.084Z,49.47
2023-09-09T06:57:49.790Z,50.89
2023-09-09T07:00:31.073Z,51.16
2023-09-09T07:03:01.281Z,50.95
2023-09-09T07:05:31.565Z,51.14
2023-09-09T07:08:01.853Z,51.14
2023-09-09T07:10:34.717Z,50.59
2023-09-09T07:13:04.941Z,50.10
2023-09-09T07:15:40.345Z,49.84
2023-09-09T07:18:19.203Z,48.62
2023-09-09T07:20:50.370Z,47.69
2023-09-09T07:23:23.971Z,47.49
2023-09-09T07:25:56.986Z,47.25
2023-09-09T07:28:27.347Z,46.42
2023-09-09T07:31:05.676Z,44.62
2023-09-09T07:33:36.633Z,42.90
2023-09-09T07:36:07.319Z,42.51
2023-09-09T07:38:37.602Z,43.01
2023-09-09T07:41:10.678Z,41.83
2023-09-09T07:43:41.331Z,41.36
2023-09-09T07:46:12.435Z,39.57
2023-09-09T07:48:42.620Z,39.11
2023-09-09T07:51:12.880Z,37.62
2023-09-09T07:53:43.141Z,37.27
2023-09-09T07:56:16.014Z,36.23
2023-09-09T07:58:46.279Z,34.59
2023-09-09T08:01:17.205Z,33.27
2023-09-09T08:03:47.605Z,31.65
2023-09-09T08:06:17.849Z,29.79
2023-09-09T08:08:49.079Z,28.87
2023-09-09T08:11:22.025Z,28.03
2023-09-09T08:13:52.278Z,26.18
2023-09-09T08:16:22.623Z,26.09
2023-09-09T08:18:52.998Z,24.75
2023-09-09T08:21:23.225Z,23.88
2023-09-09T08:23:53.802Z,24.20
2023-09-09T08:26:26.738Z,23.43
2023-09-09T08:28:56.848Z,23.33
2023-09-09T08:31:27.369Z,22.78
2023-09-09T08:34:00.227Z,22.68
2023-09-09T08:36:30.675Z,22.49
2023-09-09T08:39:00.939Z,22.13
2023-09-09T08:41:44.224Z,22.15
2023-09-09T08:44:19.391Z,22.16
2023-09-09T08:46:49.613Z,21.89
2023-09-09T08:49:21.779Z,21.18
2023-09-09T08:51:57.348Z,21.00
2023-09-09T08:54:27.793Z,20.88
2023-09-09T08:57:04.694Z,20.39
2023-09-09T08:59:36.148Z,20.33
2023-09-09T09:02:10.175Z,20.83
2023-09-09T09:04:42.682Z,19.72
2023-09-09T09:07:18.629Z,19.73
2023-09-09T09:09:51.574Z,19.80
2023-09-09T09:12:26.801Z,20.14
2023-09-09T09:14:57.013Z,20.21
2023-09-09T09:17:27.845Z,19.63
2023-09-09T09:19:58.071Z,19.97
2023-09-09T09:22:29.644Z,19.34
2023-09-09T09:25:05.620Z,19.50
2023-09-09T09:27:43.709Z,19.27
2023-09-09T09:30:18.198Z,19.38
2023-09-09T09:32:48.647Z,18.24
2023-09-09T09:35:26.646Z,16.69
2023-09-09T09:37:59.867Z,17.90
2023-09-09T09:40:30.897Z,17.69
2023-09-09T09:43:03.736Z,17.16
2023-09-09T09:45:34.699Z,17.53
2023-09-09T09:48:04.963Z,17.82
2023-09-09T09:50:36.293Z,17.22
2023-09-09T09:53:09.366Z,17.77
2023-09-09T09:55:40.626Z,16.95
2023-09-09T09:58:13.672Z,16.36
2023-09-09T10:00:44.380Z,16.18
2023-09-09T10:03:16.946Z,15.92
2023-09-09T10:05:49.057Z,15.62
2023-09-09T10:08:23.134Z,15.97
2023-09-09T10:10:58.184Z,15.75
2023-09-09T10:13:55.452Z,16.44
2023-09-09T10:16:27.257Z,16.79
2023-09-09T10:18:58.420Z,17.35
2023-09-09T10:21:40.347Z,17.27
2023-09-09T10:24:50.694Z,17.28
2023-09-09T10:27:21.405Z,18.23
2023-09-09T10:29:59.599Z,18.24
2023-09-09T10:32:30.613Z,18.41
2023-09-09T10:35:08.184Z,17.79
2023-09-09T10:37:47.964Z,17.70
2023-09-09T10:40:53.918Z,17.25
2023-09-09T10:46:18.743Z,17.34
2023-09-09T10:48:50.754Z,17.05
2023-09-09T10:51:21.067Z,16.92
2023-09-09T10:54:09.920Z,16.18
2023-09-09T10:56:48.999Z,16.27
2023-09-09T10:59:20.406Z,16.53
2023-09-09T11:02:12.800Z,16.82
2023-09-09T11:04:44.041Z,16.72
2023-09-09T11:07:17.626Z,16.02
2023-09-09T11:10:06.744Z,16.52
2023-09-09T11:12:38.419Z,16.60
2023-09-09T11:18:28.588Z,15.97
2023-09-09T11:21:37.034Z,15.87
2023-09-09T11:24:08.174Z,15.60
2023-09-09T11:26:57.263Z,15.17
2023-09-09T11:29:48.625Z,15.17
2023-09-09T11:32:29.405Z,15.10
2023-09-09T11:36:11.209Z,15.30
2023-09-09T11:39:04.924Z,14.91
2023-09-09T11:41:50.179Z,14.97
2023-09-09T11:44:52.683Z,15.03
2023-09-09T11:47:23.191Z,15.12
2023-09-09T11:49:53.421Z,14.72
2023-09-09T11:52:29.969Z,14.30
2023-09-09T11:55:04.922Z,14.04
2023-09-09T11:58:00.778Z,13.08
2023-09-09T12:00:31.159Z,13.90
2023-09-09T12:03:01.459Z,13.34
2023-09-09T12:05:33.662Z,13.12
2023-09-09T12:08:09.157Z,13.12
2023-09-09T12:10:40.573Z,14.00
2023-09-09T12:13:10.940Z,13.97
2023-09-09T12:15:43.752Z,13.21
2023-09-09T12:18:25.432Z,13.18
2023-09-09T12:21:05.730Z,13.81
2023-09-09T12:23:46.743Z,13.82
2023-09-09T12:26:19.227Z,13.99
2023-09-09T12:29:08.632Z,12.77
2023-09-09T12:32:03.507Z,12.92
2023-09-09T12:34:34.141Z,13.21
2023-09-09T12:37:07.785Z,13.23
2023-09-09T12:42:29.726Z,13.58
2023-09-09T12:45:00.021Z,13.27
2023-09-09T12:47:32.860Z,12.77
2023-09-09T12:50:05.584Z,12.67
2023-09-09T12:52:36.071Z,12.48
2023-09-09T12:56:12.377Z,13.37
2023-09-09T12:58:45.062Z,13.40
2023-09-09T13:01:15.459Z,12.70
2023-09-09T13:03:46.320Z,12.65
2023-09-09T13:06:16.568Z,12.64
2023-09-09T13:08:46.885Z,12.44
2023-09-09T13:11:21.862Z,12.01
2023-09-09T13:14:01.396Z,12.89
2023-09-09T13:16:39.249Z,12.88
2023-09-09T13:19:11.810Z,12.94
2023-09-09T13:21:44.795Z,12.68
2023-09-09T13:24:16.438Z,13.07
2023-09-09T13:26:49.510Z,13.41
2023-09-09T13:29:26.096Z,13.13
2023-09-09T13:31:56.939Z,13.54
2023-09-09T13:34:28.856Z,13.29
2023-09-09T13:37:01.187Z,13.23
2023-09-09T13:39:31.467Z,13.17
2023-09-09T13:42:11.365Z,13.24
2023-09-09T13:45:07.517Z,13.26
2023-09-09T13:47:34.545Z,13.20
2023-09-09T13:50:06.014Z,13.29
2023-09-09T13:52:41.865Z,12.90
2023-09-09T13:55:19.408Z,13.23
2023-09-09T13:57:52.608Z,13.40
2023-09-09T14:00:23.267Z,13.35
2023-09-09T14:02:54.787Z,13.64
2023-09-09T14:05:30.519Z,13.19
2023-09-09T14:08:03.898Z,13.38
2023-09-09T14:14:01.518Z,14.03
2023-09-09T14:16:41.599Z,14.15
2023-09-09T14:19:12.475Z,14.25
2023-09-09T14:21:47.327Z,14.53
2023-09-09T14:24:17.673Z,14.41
2023-09-09T14:26:56.090Z,14.27
2023-09-09T14:29:37.427Z,14.40
2023-09-09T14:32:09.359Z,14.78
2023-09-09T14:34:43.010Z,14.37
2023-09-09T14:37:13.427Z,14.48
2023-09-09T14:39:43.769Z,14.37
2023-09-09T14:42:14.018Z,15.00
2023-09-09T14:44:47.035Z,14.62
2023-09-09T14:47:17.519Z,14.37
2023-09-09T14:49:47.730Z,14.91
2023-09-09T14:52:17.931Z,15.26
2023-09-09T14:54:48.106Z,15.28
2023-09-09T14:57:18.233Z,15.45
2023-09-09T14:59:51.137Z,15.58
2023-09-09T15:02:21.448Z,15.62
2023-09-09T15:04:51.784Z,15.63
2023-09-09T15:07:22.321Z,16.12
2023-09-09T15:09:52.671Z,16.34
2023-09-09T15:12:22.934Z,16.49
2023-09-09T15:14:55.865Z,16.64
2023-09-09T15:17:26.246Z,16.95
2023-09-09T15:20:00.262Z,16.85
2023-09-09T15:22:30.533Z,16.91
2023-09-09T15:25:00.797Z,17.17
2023-09-09T15:27:32.002Z,17.31
2023-09-09T15:30:04.868Z,17.67
2023-09-09T15:32:35.139Z,17.73
2023-09-09T15:35:05.459Z,18.55
2023-09-09T15:37:35.660Z,18.41
2023-09-09T15:40:06.060Z,18.52
2023-09-09T15:42:38.674Z,18.46
2023-09-09T15:45:12.349Z,19.17
2023-09-09T15:47:42.591Z,18.97
2023-09-09T15:50:13.710Z,18.87
2023-09-09T15:52:43.931Z,19.55
2023-09-09T15:55:14.301Z,19.76
2023-09-09T15:57:44.572Z,19.99
2023-09-09T16:00:17.748Z,20.16
2023-09-09T16:02:48.055Z,21.33
2023-09-09T16:05:18.468Z,22.04
2023-09-09T16:07:48.673Z,22.57
2023-09-09T16:10:19.122Z,23.22
2023-09-09T16:12:49.383Z,23.97
2023-09-09T16:15:22.325Z,24.88
2023-09-09T16:17:52.576Z,25.65
2023-09-09T16:20:22.926Z,26.47
2023-09-09T16:22:53.312Z,27.40
2023-09-09T16:25:25.565Z,28.48
2023-09-09T16:27:55.806Z,29.16
2023-09-09T16:30:28.630Z,29.74
2023-09-09T16:32:58.992Z,30.53
2023-09-09T16:35:30.249Z,31.20
2023-09-09T16:38:00.736Z,31.68
2023-09-09T16:40:31.058Z,32.61
2023-09-09T16:43:01.355Z,32.70
2023-09-09T16:45:34.209Z,33.22
2023-09-09T16:48:06.376Z,33.65
2023-09-09T16:50:37.774Z,34.00
2023-09-09T16:53:08.885Z,34.03
2023-09-09T16:55:39.146Z,34.96
2023-09-09T16:58:09.411Z,35.02
2023-09-09T17:00:42.306Z,35.41
2023-09-09T17:03:12.622Z,35.83
2023-09-09T17:05:47.483Z,36.07
2023-09-09T17:08:17.736Z,36.68
2023-09-09T17:10:48.045Z,37.31
2023-09-09T17:13:18.540Z,37.24
2023-09-09T17:15:52.074Z,37.59
2023-09-09T17:18:22.374Z,37.94
2023-09-09T17:20:52.607Z,38.01
2023-09-09T17:23:22.775Z,38.54
2023-09-09T17:25:53.003Z,38.33
2023-09-09T17:28:23.336Z,38.71
2023-09-09T17:30:56.153Z,39.18
2023-09-09T17:33:26.519Z,39.09
2023-09-09T17:35:56.848Z,39.20
2023-09-09T17:38:27.261Z,39.49
2023-09-09T17:40:57.538Z,39.74
2023-09-09T17:43:27.917Z,39.55
2023-09-09T17:46:04.247Z,39.90
2023-09-09T17:48:34.545Z,39.88
2023-09-09T17:51:04.866Z,40.30
2023-09-09T17:53:35.093Z,40.22
2023-09-09T17:56:05.341Z,40.42
2023-09-09T17:58:35.979Z,40.53
2023-09-09T18:01:09.487Z,40.62
2023-09-09T18:03:41.090Z,40.72
2023-09-09T18:06:11.273Z,41.07
2023-09-09T18:08:41.527Z,41.35
2023-09-09T18:11:11.689Z,41.67
2023-09-09T18:13:41.971Z,41.73
2023-09-09T18:16:15.081Z,41.39
2023-09-09T18:18:45.317Z,41.84
2023-09-09T18:21:15.719Z,42.86
2023-09-09T18:23:45.977Z,43.01
2023-09-09T18:26:16.327Z,42.85
2023-09-09T18:28:46.640Z,42.97
2023-09-09T18:31:20.816Z,43.26
2023-09-09T18:33:51.207Z,43.55
2023-09-09T18:36:23.017Z,43.82
2023-09-09T18:38:53.390Z,44.07
2023-09-09T18:41:24.331Z,44.42
2023-09-09T18:43:54.601Z,44.59
2023-09-09T18:46:27.834Z,45.30
2023-09-09T18:48:58.234Z,45.21
2023-09-09T18:51:28.435Z,44.92
2023-09-09T18:53:58.627Z,44.09
2023-09-09T18:56:29.864Z,45.06
2023-09-09T18:59:00.237Z,46.19
2023-09-09T19:01:33.638Z,46.41
2023-09-09T19:04:04.055Z,46.83
2023-09-09T19:06:34.388Z,45.49
2023-09-09T19:09:04.637Z,46.30
2023-09-09T19:11:34.958Z,47.52
2023-09-09T19:14:05.280Z,47.75
2023-09-09T19:16:39.197Z,48.28
2023-09-09T19:19:09.558Z,48.07
2023-09-09T19:21:39.850Z,45.88
2023-09-09T19:24:10.866Z,47.41
2023-09-09T19:26:42.135Z,48.17
2023-09-09T19:29:12.550Z,47.50
2023-09-09T19:31:45.468Z,45.93
2023-09-09T19:34:15.699Z,46.30
2023-09-09T19:36:47.721Z,46.57
2023-09-09T19:39:18.159Z,47.55
2023-09-09T19:41:49.884Z,47.25
2023-09-09T19:44:20.182Z,48.93
2023-09-09T19:46:53.012Z,49.43
2023-09-09T19:49:23.344Z,48.49
2023-09-09T19:51:53.612Z,48.90
2023-09-09T19:54:23.808Z,49.83
2023-09-09T19:56:54.052Z,49.48
2023-09-09T19:59:24.480Z,50.16
2023-09-09T20:01:57.377Z,51.13
2023-09-09T20:04:27.854Z,51.24
2023-09-09T20:06:58.165Z,51.90
2023-09-09T20:09:28.425Z,52.51
2023-09-09T20:11:58.632Z,52.40
2023-09-09T20:14:29.164Z,53.03
2023-09-09T20:17:02.004Z,53.34
2023-09-09T20:19:32.380Z,53.17
2023-09-09T20:22:02.644Z,53.22
2023-09-09T20:24:33.338Z,53.37
2023-09-09T20:27:03.622Z,54.01
2023-09-09T20:29:34.539Z,54.25
2023-09-09T20:32:08.610Z,54.21
2023-09-09T20:34:39.002Z,54.22
2023-09-09T20:37:09.116Z,54.58
2023-09-09T20:39:40.091Z,53.90
2023-09-09T20:42:10.893Z,54.56
2023-09-09T20:44:41.100Z,54.52
2023-09-09T20:47:14.041Z,55.01
2023-09-09T20:49:44.406Z,55.06
2023-09-09T20:52:12.353Z,55.01
2023-09-09T20:54:42.946Z,55.02
2023-09-09T20:57:13.396Z,55.36
2023-09-09T20:59:46.660Z,55.31
2023-09-09T21:02:19.604Z,55.63
2023-09-09T21:04:50.090Z,55.40
2023-09-09T21:07:20.427Z,55.65
2023-09-09T21:09:50.628Z,55.79
2023-09-09T21:12:20.817Z,55.98
2023-09-09T21:14:54.369Z,56.05
2023-09-09T21:17:27.662Z,56.64
2023-09-09T21:19:58.862Z,56.19
2023-09-09T21:22:29.650Z,56.75
2023-09-09T21:25:00.164Z,56.53
2023-09-09T21:27:35.477Z,56.97
2023-09-09T21:30:07.095Z,56.56
2023-09-09T21:32:41.971Z,56.71
2023-09-09T21:35:30.646Z,56.97
2023-09-09T21:38:11.683Z,56.65
2023-09-09T21:40:54.047Z,57.19
2023-09-09T21:43:37.629Z,56.55
2023-09-09T21:46:15.532Z,57.25
2023-09-09T21:49:06.944Z,57.84
2023-09-09T21:52:03.368Z,57.77
2023-09-09T21:54:54.926Z,58.22
2023-09-09T21:57:25.376Z,58.09
2023-09-09T21:59:57.191Z,58.06
2023-09-09T22:02:27.832Z,58.22
2023-09-09T22:04:58.752Z,58.35
2023-09-09T22:07:29.314Z,58.43
2023-09-09T22:10:02.270Z,58.67
2023-09-09T22:12:34.134Z,58.38
2023-09-09T22:15:05.297Z,58.45
2023-09-09T22:17:37.651Z,58.26
2023-09-09T22:20:13.432Z,57.90
2023-09-09T22:22:44.374Z,57.00
2023-09-09T22:25:18.621Z,57.27
2023-09-09T22:27:49.065Z,57.39
2023-09-09T22:30:19.309Z,57.97
2023-09-09T22:32:49.960Z,57.93
2023-09-09T22:35:28.224Z,57.60
2023-09-09T22:38:00.492Z,57.07
2023-09-09T22:40:34.467Z,57.14
2023-09-09T22:43:04.961Z,56.56
2023-09-09T22:45:35.581Z,56.29
2023-09-09T22:48:06.650Z,56.34
2023-09-09T22:50:37.742Z,56.04
2023-09-09T22:53:08.394Z,55.36
2023-09-09T22:55:41.645Z,55.40
2023-09-09T22:58:12.987Z,55.72
2023-09-09T23:00:43.506Z,55.58
2023-09-09T23:03:13.763Z,55.51
2023-09-09T23:05:44.464Z,55.42
2023-09-09T23:08:15.090Z,55.07
2023-09-09T23:10:48.276Z,54.75
2023-09-09T23:13:18.781Z,54.79
2023-09-09T23:15:49.713Z,55.66
2023-09-09T23:18:20.269Z,56.02
2023-09-09T23:20:50.504Z,56.61
2023-09-09T23:23:21.166Z,57.03
2023-09-09T23:25:59.974Z,57.54
2023-09-09T23:28:30.775Z,57.51
2023-09-09T23:31:02.451Z,57.76
2023-09-09T23:33:35.252Z,58.25
2023-09-09T23:36:06.948Z,58.71
2023-09-09T23:38:37.847Z,58.93
2023-09-09T23:41:12.294Z,59.13
2023-09-09T23:43:42.953Z,58.43
2023-09-09T23:46:14.098Z,58.92
2023-09-09T23:48:44.614Z,59.03
2023-09-09T23:51:15.011Z,59.12
2023-09-09T23:53:45.541Z,59.02
2023-09-09T23:56:18.344Z,59.60
2023-09-09T23:58:49.673Z,59.64
